sensor_id;sensor_type;location;lat;lon;timestamp;pressure;altitude;pressure_sealevel;temperature;humidity
8575;BME280;4325;42.520;27.448;2022-09-21T00:01:24;101143.84;;;14.76;71.32
8575;BME280;4325;42.520;27.448;2022-09-21T00:03:52;101148.78;;;14.79;70.00
8575;BME280;4325;42.520;27.448;2022-09-21T00:06:22;101155.09;;;14.80;69.39
8575;BME280;4325;42.520;27.448;2022-09-21T00:08:50;101161.75;;;14.79;70.10
8575;BME280;4325;42.520;27.448;2022-09-21T00:11:20;101162.84;;;14.78;70.28
8575;BME280;4325;42.520;27.448;2022-09-21T00:13:51;101162.84;;;14.78;71.04
8575;BME280;4325;42.520;27.448;2022-09-21T00:16:18;101165.84;;;14.81;69.87
8575;BME280;4325;42.520;27.448;2022-09-21T00:18:45;101169.44;;;14.82;69.44
8575;BME280;4325;42.520;27.448;2022-09-21T00:21:13;101165.59;;;14.78;70.35
8575;BME280;4325;42.520;27.448;2022-09-21T00:23:43;101167.81;;;14.76;70.70
8575;BME280;4325;42.520;27.448;2022-09-21T00:26:12;101163.94;;;14.82;71.10
8575;BME280;4325;42.520;27.448;2022-09-21T00:28:40;101161.69;;;14.84;70.56
8575;BME280;4325;42.520;27.448;2022-09-21T00:31:10;101167.22;;;14.84;69.27
8575;BME280;4325;42.520;27.448;2022-09-21T00:33:37;101158.38;;;14.87;67.30
8575;BME280;4325;42.520;27.448;2022-09-21T00:36:07;101162.53;;;14.84;66.80
8575;BME280;4325;42.520;27.448;2022-09-21T00:38:34;101155.06;;;14.85;66.72
8575;BME280;4325;42.520;27.448;2022-09-21T00:41:04;101156.72;;;14.86;65.92
8575;BME280;4325;42.520;27.448;2022-09-21T00:43:33;101161.94;;;14.87;65.68
8575;BME280;4325;42.520;27.448;2022-09-21T00:46:02;101155.00;;;14.90;65.30
8575;BME280;4325;42.520;27.448;2022-09-21T00:48:29;101159.13;;;14.92;65.54
8575;BME280;4325;42.520;27.448;2022-09-21T00:50:59;101156.38;;;14.92;64.69
8575;BME280;4325;42.520;27.448;2022-09-21T00:53:27;101156.09;;;14.94;66.18
8575;BME280;4325;42.520;27.448;2022-09-21T00:55:56;101156.66;;;14.91;67.29
8575;BME280;4325;42.520;27.448;2022-09-21T00:58:27;101156.16;;;14.89;66.87
8575;BME280;4325;42.520;27.448;2022-09-21T01:00:57;101144.81;;;14.90;67.13
8575;BME280;4325;42.520;27.448;2022-09-21T01:03:26;101148.41;;;14.91;67.37
8575;BME280;4325;42.520;27.448;2022-09-21T01:05:53;101139.06;;;14.87;67.59
8575;BME280;4325;42.520;27.448;2022-09-21T01:08:21;101144.34;;;14.83;67.80
8575;BME280;4325;42.520;27.448;2022-09-21T01:11:03;101141.91;;;14.77;66.85
8575;BME280;4325;42.520;27.448;2022-09-21T01:13:42;101136.69;;;14.75;66.46
8575;BME280;4325;42.520;27.448;2022-09-21T01:16:14;101139.78;;;14.69;66.23
8575;BME280;4325;42.520;27.448;2022-09-21T01:18:50;101138.72;;;14.65;66.35
8575;BME280;4325;42.520;27.448;2022-09-21T01:21:21;101145.59;;;14.67;65.63
8575;BME280;4325;42.520;27.448;2022-09-21T01:24:21;101134.84;;;14.66;64.85
8575;BME280;4325;42.520;27.448;2022-09-21T01:27:11;101136.84;;;14.60;64.33
8575;BME280;4325;42.520;27.448;2022-09-21T01:29:49;101139.66;;;14.50;65.47
8575;BME280;4325;42.520;27.448;2022-09-21T01:32:21;101135.81;;;14.46;66.91
8575;BME280;4325;42.520;27.448;2022-09-21T01:34:52;101137.19;;;14.48;65.62
8575;BME280;4325;42.520;27.448;2022-09-21T01:37:23;101139.41;;;14.46;65.65
8575;BME280;4325;42.520;27.448;2022-09-21T01:39:54;101129.00;;;14.38;65.77
8575;BME280;4325;42.520;27.448;2022-09-21T01:42:25;101131.22;;;14.36;65.59
8575;BME280;4325;42.520;27.448;2022-09-21T01:44:55;101131.25;;;14.31;65.65
8575;BME280;4325;42.520;27.448;2022-09-21T01:47:23;101127.94;;;14.29;65.60
8575;BME280;4325;42.520;27.448;2022-09-21T01:49:54;101122.50;;;14.19;66.16
8575;BME280;4325;42.520;27.448;2022-09-21T01:52:26;101113.19;;;14.15;66.75
8575;BME280;4325;42.520;27.448;2022-09-21T01:54:58;101123.97;;;14.07;67.11
8575;BME280;4325;42.520;27.448;2022-09-21T01:57:33;101114.09;;;14.01;67.56
8575;BME280;4325;42.520;27.448;2022-09-21T02:00:06;101121.31;;;13.92;67.86
8575;BME280;4325;42.520;27.448;2022-09-21T02:02:37;101120.81;;;13.84;68.37
8575;BME280;4325;42.520;27.448;2022-09-21T02:05:07;101123.00;;;13.82;68.93
8575;BME280;4325;42.520;27.448;2022-09-21T02:07:34;101128.81;;;13.76;68.89
8575;BME280;4325;42.520;27.448;2022-09-21T02:10:06;101128.88;;;13.66;69.56
8575;BME280;4325;42.520;27.448;2022-09-21T02:12:35;101122.84;;;13.59;70.33
8575;BME280;4325;42.520;27.448;2022-09-21T02:15:04;101131.66;;;13.61;70.72
8575;BME280;4325;42.520;27.448;2022-09-21T02:17:35;101127.28;;;13.55;70.63
8575;BME280;4325;42.520;27.448;2022-09-21T02:20:13;101126.22;;;13.46;71.33
8575;BME280;4325;42.520;27.448;2022-09-21T02:22:52;101125.97;;;13.42;72.30
8575;BME280;4325;42.520;27.448;2022-09-21T02:25:30;101130.91;;;13.40;72.97
8575;BME280;4325;42.520;27.448;2022-09-21T02:28:06;101131.19;;;13.39;74.70
8575;BME280;4325;42.520;27.448;2022-09-21T02:30:37;101129.56;;;13.38;76.08
8575;BME280;4325;42.520;27.448;2022-09-21T02:33:10;101127.34;;;13.35;76.88
8575;BME280;4325;42.520;27.448;2022-09-21T02:35:41;101133.41;;;13.32;77.13
8575;BME280;4325;42.520;27.448;2022-09-21T02:38:13;101128.44;;;13.34;76.43
8575;BME280;4325;42.520;27.448;2022-09-21T02:40:48;101127.13;;;13.31;76.13
8575;BME280;4325;42.520;27.448;2022-09-21T02:43:22;101119.13;;;13.30;76.22
8575;BME280;4325;42.520;27.448;2022-09-21T02:45:56;101121.06;;;13.24;76.07
8575;BME280;4325;42.520;27.448;2022-09-21T02:48:28;101123.56;;;13.20;76.80
8575;BME280;4325;42.520;27.448;2022-09-21T02:51:02;101122.50;;;13.11;77.42
8575;BME280;4325;42.520;27.448;2022-09-21T02:53:34;101126.31;;;13.00;78.39
8575;BME280;4325;42.520;27.448;2022-09-21T02:56:04;101124.69;;;12.99;79.17
8575;BME280;4325;42.520;27.448;2022-09-21T02:58:35;101118.69;;;12.82;79.14
8575;BME280;4325;42.520;27.448;2022-09-21T03:01:05;101112.66;;;12.75;79.39
8575;BME280;4325;42.520;27.448;2022-09-21T03:03:33;101121.16;;;12.69;79.52
8575;BME280;4325;42.520;27.448;2022-09-21T03:06:01;101123.63;;;12.65;80.38
8575;BME280;4325;42.520;27.448;2022-09-21T03:08:28;101131.59;;;12.62;80.11
8575;BME280;4325;42.520;27.448;2022-09-21T03:10:55;101132.97;;;12.54;80.10
8575;BME280;4325;42.520;27.448;2022-09-21T03:13:23;101126.94;;;12.47;81.01
8575;BME280;4325;42.520;27.448;2022-09-21T03:15:58;101126.91;;;12.37;81.48
8575;BME280;4325;42.520;27.448;2022-09-21T03:18:26;101122.78;;;12.29;81.82
8575;BME280;4325;42.520;27.448;2022-09-21T03:20:53;101129.09;;;12.25;82.54
8575;BME280;4325;42.520;27.448;2022-09-21T03:23:20;101119.50;;;12.22;82.65
8575;BME280;4325;42.520;27.448;2022-09-21T03:25:47;101131.00;;;12.19;83.71
8575;BME280;4325;42.520;27.448;2022-09-21T03:28:16;101129.94;;;12.20;83.20
8575;BME280;4325;42.520;27.448;2022-09-21T03:30:43;101129.09;;;12.15;83.01
8575;BME280;4325;42.520;27.448;2022-09-21T03:33:10;101127.72;;;12.12;83.43
8575;BME280;4325;42.520;27.448;2022-09-21T03:35:39;101128.84;;;12.11;83.54
8575;BME280;4325;42.520;27.448;2022-09-21T03:38:06;101141.19;;;12.09;83.42
8575;BME280;4325;42.520;27.448;2022-09-21T03:40:33;101139.25;;;12.04;83.74
8575;BME280;4325;42.520;27.448;2022-09-21T03:43:00;101139.50;;;12.03;84.00
8575;BME280;4325;42.520;27.448;2022-09-21T03:45:27;101135.94;;;11.97;84.12
8575;BME280;4325;42.520;27.448;2022-09-21T03:47:54;101147.47;;;11.99;83.80
8575;BME280;4325;42.520;27.448;2022-09-21T03:50:22;101129.63;;;11.97;83.45
8575;BME280;4325;42.520;27.448;2022-09-21T03:52:51;101131.25;;;11.98;83.02
8575;BME280;4325;42.520;27.448;2022-09-21T03:55:17;101141.69;;;12.01;82.52
8575;BME280;4325;42.520;27.448;2022-09-21T03:57:44;101147.75;;;12.03;82.53
8575;BME280;4325;42.520;27.448;2022-09-21T04:00:12;101142.25;;;12.03;82.52
8575;BME280;4325;42.520;27.448;2022-09-21T04:02:39;101140.06;;;12.05;82.62
8575;BME280;4325;42.520;27.448;2022-09-21T04:05:07;101137.88;;;12.07;82.78
8575;BME280;4325;42.520;27.448;2022-09-21T04:07:34;101143.38;;;12.07;82.96
8575;BME280;4325;42.520;27.448;2022-09-21T04:10:04;101142.81;;;12.10;82.53
8575;BME280;4325;42.520;27.448;2022-09-21T04:12:32;101136.25;;;12.16;81.71
8575;BME280;4325;42.520;27.448;2022-09-21T04:15:00;101142.81;;;12.20;81.19
8575;BME280;4325;42.520;27.448;2022-09-21T04:17:28;101140.63;;;12.22;80.89
8575;BME280;4325;42.520;27.448;2022-09-21T04:19:55;101139.00;;;12.26;80.91
8575;BME280;4325;42.520;27.448;2022-09-21T04:22:22;101139.56;;;12.28;80.84
8575;BME280;4325;42.520;27.448;2022-09-21T04:24:50;101138.44;;;12.34;80.43
8575;BME280;4325;42.520;27.448;2022-09-21T04:27:18;101133.78;;;12.39;80.51
8575;BME280;4325;42.520;27.448;2022-09-21T04:29:45;101127.75;;;12.37;80.65
8575;BME280;4325;42.520;27.448;2022-09-21T04:32:11;101128.84;;;12.41;80.82
8575;BME280;4325;42.520;27.448;2022-09-21T04:34:38;101130.50;;;12.47;80.15
8575;BME280;4325;42.520;27.448;2022-09-21T04:37:05;101142.88;;;12.55;79.79
8575;BME280;4325;42.520;27.448;2022-09-21T04:39:33;101135.47;;;12.55;80.04
8575;BME280;4325;42.520;27.448;2022-09-21T04:42:00;101139.59;;;12.58;80.04
8575;BME280;4325;42.520;27.448;2022-09-21T04:44:29;101149.44;;;12.59;79.94
8575;BME280;4325;42.520;27.448;2022-09-21T04:46:55;101153.03;;;12.65;79.43
8575;BME280;4325;42.520;27.448;2022-09-21T04:49:22;101161.53;;;12.68;79.43
8575;BME280;4325;42.520;27.448;2022-09-21T04:51:49;101147.53;;;12.70;78.95
8575;BME280;4325;42.520;27.448;2022-09-21T04:54:16;101157.41;;;12.76;78.60
8575;BME280;4325;42.520;27.448;2022-09-21T04:56:43;101168.13;;;12.77;78.29
8575;BME280;4325;42.520;27.448;2022-09-21T04:59:10;101163.72;;;12.81;78.50
8575;BME280;4325;42.520;27.448;2022-09-21T05:01:38;101162.06;;;12.80;78.17
8575;BME280;4325;42.520;27.448;2022-09-21T05:04:05;101160.97;;;12.81;78.62
8575;BME280;4325;42.520;27.448;2022-09-21T05:06:32;101155.50;;;12.81;78.40
8575;BME280;4325;42.520;27.448;2022-09-21T05:09:00;101128.56;;;12.78;78.58
8575;BME280;4325;42.520;27.448;2022-09-21T05:11:44;101143.94;;;12.94;77.92
8575;BME280;4325;42.520;27.448;2022-09-21T05:14:11;101143.34;;;13.02;77.87
8575;BME280;4325;42.520;27.448;2022-09-21T05:16:40;101154.91;;;13.09;77.53
8575;BME280;4325;42.520;27.448;2022-09-21T05:19:06;101154.09;;;13.14;77.65
8575;BME280;4325;42.520;27.448;2022-09-21T05:21:33;101157.94;;;13.23;77.57
8575;BME280;4325;42.520;27.448;2022-09-21T05:24:01;101151.88;;;13.31;77.00
8575;BME280;4325;42.520;27.448;2022-09-21T05:26:28;101158.16;;;13.37;76.82
8575;BME280;4325;42.520;27.448;2022-09-21T05:28:55;101154.00;;;13.44;76.35
8575;BME280;4325;42.520;27.448;2022-09-21T05:31:30;101148.75;;;13.53;76.51
8575;BME280;4325;42.520;27.448;2022-09-21T05:34:04;101144.56;;;13.65;75.75
8575;BME280;4325;42.520;27.448;2022-09-21T05:36:39;101145.38;;;13.71;75.58
8575;BME280;4325;42.520;27.448;2022-09-21T05:39:09;101145.84;;;13.83;75.34
8575;BME280;4325;42.520;27.448;2022-09-21T05:41:36;101141.38;;;13.97;75.06
8575;BME280;4325;42.520;27.448;2022-09-21T05:44:04;101131.69;;;14.05;74.44
8575;BME280;4325;42.520;27.448;2022-09-21T05:46:36;101135.69;;;14.22;74.02
8575;BME280;4325;42.520;27.448;2022-09-21T05:49:16;101133.22;;;14.26;73.86
8575;BME280;4325;42.520;27.448;2022-09-21T05:51:55;101145.25;;;14.40;72.70
8575;BME280;4325;42.520;27.448;2022-09-21T05:54:35;101136.31;;;14.53;73.09
8575;BME280;4325;42.520;27.448;2022-09-21T05:57:10;101136.53;;;14.62;72.43
8575;BME280;4325;42.520;27.448;2022-09-21T05:59:48;101144.19;;;14.70;72.88
8575;BME280;4325;42.520;27.448;2022-09-21T06:02:25;101140.47;;;14.84;73.42
8575;BME280;4325;42.520;27.448;2022-09-21T06:05:01;101145.63;;;14.91;73.71
8575;BME280;4325;42.520;27.448;2022-09-21T06:07:31;101141.91;;;15.05;72.80
8575;BME280;4325;42.520;27.448;2022-09-21T06:09:58;101151.44;;;15.18;72.40
8575;BME280;4325;42.520;27.448;2022-09-21T06:12:25;101143.91;;;15.23;72.62
8575;BME280;4325;42.520;27.448;2022-09-21T06:14:51;101147.53;;;15.19;72.80
8575;BME280;4325;42.520;27.448;2022-09-21T06:17:20;101144.16;;;15.27;73.60
8575;BME280;4325;42.520;27.448;2022-09-21T06:19:47;101137.22;;;15.30;73.88
8575;BME280;4325;42.520;27.448;2022-09-21T06:22:15;101142.13;;;15.38;74.64
8575;BME280;4325;42.520;27.448;2022-09-21T06:24:42;101140.84;;;15.54;71.90
8575;BME280;4325;42.520;27.448;2022-09-21T06:27:09;101144.44;;;15.73;71.54
8575;BME280;4325;42.520;27.448;2022-09-21T06:29:35;101139.56;;;15.89;70.78
8575;BME280;4325;42.520;27.448;2022-09-21T06:32:03;101146.81;;;16.03;68.88
8575;BME280;4325;42.520;27.448;2022-09-21T06:34:30;101136.13;;;16.15;68.47
8575;BME280;4325;42.520;27.448;2022-09-21T06:36:57;101142.84;;;16.28;68.16
8575;BME280;4325;42.520;27.448;2022-09-21T06:39:25;101140.06;;;16.46;66.72
8575;BME280;4325;42.520;27.448;2022-09-21T06:41:52;101138.44;;;16.64;64.28
8575;BME280;4325;42.520;27.448;2022-09-21T06:44:19;101140.19;;;16.74;63.90
8575;BME280;4325;42.520;27.448;2022-09-21T06:46:46;101144.94;;;16.87;62.74
8575;BME280;4325;42.520;27.448;2022-09-21T06:49:13;101145.16;;;16.90;62.51
8575;BME280;4325;42.520;27.448;2022-09-21T06:51:39;101143.13;;;17.09;59.93
8575;BME280;4325;42.520;27.448;2022-09-21T06:54:07;101142.53;;;17.26;60.45
8575;BME280;4325;42.520;27.448;2022-09-21T06:56:35;101138.66;;;17.41;60.21
8575;BME280;4325;42.520;27.448;2022-09-21T06:59:03;101132.25;;;17.59;58.77
8575;BME280;4325;42.520;27.448;2022-09-21T07:01:29;101135.69;;;17.78;57.57
8575;BME280;4325;42.520;27.448;2022-09-21T07:03:56;101129.00;;;17.93;56.67
8575;BME280;4325;42.520;27.448;2022-09-21T07:06:23;101139.09;;;18.24;55.20
8575;BME280;4325;42.520;27.448;2022-09-21T07:08:50;101136.28;;;18.82;52.53
8575;BME280;4325;42.520;27.448;2022-09-21T07:11:18;101139.03;;;19.92;48.76
8575;BME280;4325;42.520;27.448;2022-09-21T07:13:46;101140.75;;;21.33;44.62
8575;BME280;4325;42.520;27.448;2022-09-21T07:16:13;101130.19;;;23.13;39.88
8575;BME280;4325;42.520;27.448;2022-09-21T07:18:41;101132.09;;;24.85;36.18
8575;BME280;4325;42.520;27.448;2022-09-21T07:21:09;101138.81;;;26.59;33.50
8575;BME280;4325;42.520;27.448;2022-09-21T07:23:37;101130.28;;;28.11;30.95
8575;BME280;4325;42.520;27.448;2022-09-21T07:26:05;101132.19;;;29.80;27.89
8575;BME280;4325;42.520;27.448;2022-09-21T07:28:32;101150.63;;;31.32;25.48
8575;BME280;4325;42.520;27.448;2022-09-21T07:31:06;101146.22;;;31.95;24.38
8575;BME280;4325;42.520;27.448;2022-09-21T07:33:33;101152.47;;;32.77;23.44
8575;BME280;4325;42.520;27.448;2022-09-21T07:36:01;101143.63;;;33.33;22.80
8575;BME280;4325;42.520;27.448;2022-09-21T07:38:34;101135.34;;;33.56;22.07
8575;BME280;4325;42.520;27.448;2022-09-21T07:41:01;101143.59;;;33.88;22.21
8575;BME280;4325;42.520;27.448;2022-09-21T07:43:28;101137.84;;;34.36;20.88
8575;BME280;4325;42.520;27.448;2022-09-21T07:45:55;101139.22;;;34.58;20.78
8575;BME280;4325;42.520;27.448;2022-09-21T07:48:23;101136.81;;;35.13;20.29
8575;BME280;4325;42.520;27.448;2022-09-21T07:50:50;101132.28;;;34.89;20.36
8575;BME280;4325;42.520;27.448;2022-09-21T07:53:17;101133.47;;;35.45;19.73
8575;BME280;4325;42.520;27.448;2022-09-21T07:55:44;101131.59;;;36.28;18.82
8575;BME280;4325;42.520;27.448;2022-09-21T07:58:11;101132.56;;;37.16;18.07
8575;BME280;4325;42.520;27.448;2022-09-21T08:00:55;101127.94;;;37.54;17.49
8575;BME280;4325;42.520;27.448;2022-09-21T08:03:23;101135.06;;;37.95;17.26
8575;BME280;4325;42.520;27.448;2022-09-21T08:05:50;101130.47;;;38.42;16.64
8575;BME280;4325;42.520;27.448;2022-09-21T08:08:17;101139.19;;;39.05;15.98
8575;BME280;4325;42.520;27.448;2022-09-21T08:10:44;101139.34;;;39.27;15.95
8575;BME280;4325;42.520;27.448;2022-09-21T08:13:11;101139.84;;;39.72;15.53
8575;BME280;4325;42.520;27.448;2022-09-21T08:15:38;101139.28;;;39.77;15.14
8575;BME280;4325;42.520;27.448;2022-09-21T08:18:05;101129.09;;;39.51;15.15
8575;BME280;4325;42.520;27.448;2022-09-21T08:20:34;101133.13;;;39.16;15.17
8575;BME280;4325;42.520;27.448;2022-09-21T08:23:01;101127.28;;;38.94;15.19
8575;BME280;4325;42.520;27.448;2022-09-21T08:25:28;101139.44;;;39.36;15.38
8575;BME280;4325;42.520;27.448;2022-09-21T08:27:58;101131.66;;;39.36;14.72
8575;BME280;4325;42.520;27.448;2022-09-21T08:30:25;101126.72;;;39.62;14.94
8575;BME280;4325;42.520;27.448;2022-09-21T08:32:55;101124.84;;;39.68;14.82
8575;BME280;4325;42.520;27.448;2022-09-21T08:35:22;101122.81;;;40.03;14.49
8575;BME280;4325;42.520;27.448;2022-09-21T08:37:52;101125.50;;;40.62;14.00
8575;BME280;4325;42.520;27.448;2022-09-21T08:40:19;101123.34;;;40.75;14.04
8575;BME280;4325;42.520;27.448;2022-09-21T08:42:53;101112.22;;;41.08;13.87
8575;BME280;4325;42.520;27.448;2022-09-21T08:45:24;101115.72;;;41.03;13.70
8575;BME280;4325;42.520;27.448;2022-09-21T08:47:55;101110.88;;;40.91;13.61
8575;BME280;4325;42.520;27.448;2022-09-21T08:50:32;101102.78;;;40.77;13.42
8575;BME280;4325;42.520;27.448;2022-09-21T08:53:05;101105.28;;;40.97;13.35
8575;BME280;4325;42.520;27.448;2022-09-21T08:55:33;101110.94;;;41.49;13.18
8575;BME280;4325;42.520;27.448;2022-09-21T08:58:00;101106.69;;;42.35;12.87
8575;BME280;4325;42.520;27.448;2022-09-21T09:00:32;101106.59;;;43.55;12.34
8575;BME280;4325;42.520;27.448;2022-09-21T09:03:33;101104.25;;;44.45;11.42
8575;BME280;4325;42.520;27.448;2022-09-21T09:06:08;101100.06;;;44.31;11.43
8575;BME280;4325;42.520;27.448;2022-09-21T09:08:53;101088.72;;;44.72;11.07
8575;BME280;4325;42.520;27.448;2022-09-21T09:11:35;101086.31;;;45.69;10.54
8575;BME280;4325;42.520;27.448;2022-09-21T09:17:18;101073.13;;;45.13;10.33
8575;BME280;4325;42.520;27.448;2022-09-21T09:19:55;101075.47;;;43.59;11.39
8575;BME280;4325;42.520;27.448;2022-09-21T09:22:28;101070.88;;;42.27;12.09
8575;BME280;4325;42.520;27.448;2022-09-21T09:24:59;101066.38;;;41.44;12.64
8575;BME280;4325;42.520;27.448;2022-09-21T09:27:32;101072.59;;;39.39;13.73
8575;BME280;4325;42.520;27.448;2022-09-21T09:30:03;101057.47;;;38.09;15.12
8575;BME280;4325;42.520;27.448;2022-09-21T09:32:40;101056.13;;;37.36;15.43
8575;BME280;4325;42.520;27.448;2022-09-21T09:35:18;101054.16;;;36.49;15.83
8575;BME280;4325;42.520;27.448;2022-09-21T09:37:49;101056.88;;;35.04;17.18
8575;BME280;4325;42.520;27.448;2022-09-21T09:40:24;101063.69;;;34.54;17.63
8575;BME280;4325;42.520;27.448;2022-09-21T09:43:01;101062.94;;;34.16;18.51
8575;BME280;4325;42.520;27.448;2022-09-21T09:45:41;101046.75;;;33.72;18.84
8575;BME280;4325;42.520;27.448;2022-09-21T09:48:27;101042.09;;;33.51;18.38
8575;BME280;4325;42.520;27.448;2022-09-21T09:50:56;101042.19;;;35.02;17.89
8575;BME280;4325;42.520;27.448;2022-09-21T09:53:24;101025.81;;;37.42;15.80
8575;BME280;4325;42.520;27.448;2022-09-21T09:55:54;101029.06;;;39.31;14.20
8575;BME280;4325;42.520;27.448;2022-09-21T09:58:23;101018.03;;;40.42;13.88
8575;BME280;4325;42.520;27.448;2022-09-21T10:00:52;101027.31;;;41.16;13.04
8575;BME280;4325;42.520;27.448;2022-09-21T10:03:21;101019.97;;;41.15;12.72
8575;BME280;4325;42.520;27.448;2022-09-21T10:05:49;101031.13;;;39.78;13.24
8575;BME280;4325;42.520;27.448;2022-09-21T10:08:40;101030.47;;;39.74;13.35
8575;BME280;4325;42.520;27.448;2022-09-21T10:11:10;101029.97;;;39.41;13.72
8575;BME280;4325;42.520;27.448;2022-09-21T10:13:38;101023.91;;;40.38;13.30
8575;BME280;4325;42.520;27.448;2022-09-21T10:16:11;101031.59;;;41.79;12.74
8575;BME280;4325;42.520;27.448;2022-09-21T10:18:44;101030.66;;;43.25;11.94
8575;BME280;4325;42.520;27.448;2022-09-21T10:21:16;101024.28;;;42.89;11.98
8575;BME280;4325;42.520;27.448;2022-09-21T10:23:47;101012.38;;;41.58;12.64
8575;BME280;4325;42.520;27.448;2022-09-21T10:26:17;101019.84;;;40.79;12.74
8575;BME280;4325;42.520;27.448;2022-09-21T10:28:56;101012.09;;;40.36;13.00
8575;BME280;4325;42.520;27.448;2022-09-21T10:31:24;101017.53;;;39.69;13.42
8575;BME280;4325;42.520;27.448;2022-09-21T10:33:54;101008.09;;;40.03;13.11
8575;BME280;4325;42.520;27.448;2022-09-21T10:36:32;101012.06;;;40.58;13.11
8575;BME280;4325;42.520;27.448;2022-09-21T10:39:18;101002.09;;;40.71;12.58
8575;BME280;4325;42.520;27.448;2022-09-21T10:41:53;100998.03;;;40.60;12.15
8575;BME280;4325;42.520;27.448;2022-09-21T10:44:24;101004.44;;;39.21;12.85
8575;BME280;4325;42.520;27.448;2022-09-21T10:46:52;100994.25;;;37.91;13.68
8575;BME280;4325;42.520;27.448;2022-09-21T10:49:23;100995.25;;;36.91;14.98
8575;BME280;4325;42.520;27.448;2022-09-21T10:51:52;100991.50;;;36.06;15.37
8575;BME280;4325;42.520;27.448;2022-09-21T10:54:23;100991.75;;;35.30;16.07
8575;BME280;4325;42.520;27.448;2022-09-21T10:57:00;100991.38;;;34.51;16.65
8575;BME280;4325;42.520;27.448;2022-09-21T10:59:29;100997.72;;;34.02;17.22
8575;BME280;4325;42.520;27.448;2022-09-21T11:01:58;100997.66;;;33.34;17.76
8575;BME280;4325;42.520;27.448;2022-09-21T11:04:33;100992.72;;;34.13;17.90
8575;BME280;4325;42.520;27.448;2022-09-21T11:07:08;100982.88;;;36.10;16.16
8575;BME280;4325;42.520;27.448;2022-09-21T11:09:42;100974.59;;;36.87;15.40
8575;BME280;4325;42.520;27.448;2022-09-21T11:12:24;100971.69;;;36.71;15.24
8575;BME280;4325;42.520;27.448;2022-09-21T11:14:59;100990.75;;;38.12;15.38
8575;BME280;4325;42.520;27.448;2022-09-21T11:17:34;100982.25;;;39.47;14.77
8575;BME280;4325;42.520;27.448;2022-09-21T11:20:10;100991.44;;;39.42;14.11
8575;BME280;4325;42.520;27.448;2022-09-21T11:22:46;100982.97;;;38.79;14.32
8575;BME280;4325;42.520;27.448;2022-09-21T11:25:25;100977.94;;;38.04;15.28
8575;BME280;4325;42.520;27.448;2022-09-21T11:28:03;100968.53;;;37.01;16.02
8575;BME280;4325;42.520;27.448;2022-09-21T11:30:43;100969.84;;;36.28;17.02
8575;BME280;4325;42.520;27.448;2022-09-21T11:33:31;100970.28;;;36.63;17.73
8575;BME280;4325;42.520;27.448;2022-09-21T11:36:06;100958.81;;;37.59;16.14
8575;BME280;4325;42.520;27.448;2022-09-21T11:38:45;100969.09;;;38.90;16.24
8575;BME280;4325;42.520;27.448;2022-09-21T11:41:23;100974.78;;;38.27;15.82
8575;BME280;4325;42.520;27.448;2022-09-21T11:44:07;100961.81;;;37.40;15.95
8575;BME280;4325;42.520;27.448;2022-09-21T11:46:44;100958.97;;;36.23;16.86
8575;BME280;4325;42.520;27.448;2022-09-21T11:49:36;100966.38;;;35.15;17.84
8575;BME280;4325;42.520;27.448;2022-09-21T11:52:15;100964.44;;;34.32;18.34
8575;BME280;4325;42.520;27.448;2022-09-21T11:57:42;100965.09;;;32.39;21.19
8575;BME280;4325;42.520;27.448;2022-09-21T12:00:16;100975.59;;;31.27;22.47
8575;BME280;4325;42.520;27.448;2022-09-21T12:05:47;100981.09;;;29.39;24.12
8575;BME280;4325;42.520;27.448;2022-09-21T12:08:35;100971.88;;;28.91;24.19
8575;BME280;4325;42.520;27.448;2022-09-21T12:11:12;100965.91;;;28.59;24.47
8575;BME280;4325;42.520;27.448;2022-09-21T12:13:46;100968.50;;;28.38;24.63
8575;BME280;4325;42.520;27.448;2022-09-21T12:16:24;100962.56;;;28.10;24.56
8575;BME280;4325;42.520;27.448;2022-09-21T12:19:00;100962.47;;;28.03;24.49
8575;BME280;4325;42.520;27.448;2022-09-21T12:21:32;100961.69;;;28.39;24.14
8575;BME280;4325;42.520;27.448;2022-09-21T12:24:02;100958.56;;;28.92;23.47
8575;BME280;4325;42.520;27.448;2022-09-21T12:26:35;100957.47;;;29.07;23.18
8575;BME280;4325;42.520;27.448;2022-09-21T12:29:12;100945.94;;;28.71;23.29
8575;BME280;4325;42.520;27.448;2022-09-21T12:31:48;100948.25;;;28.62;23.78
8575;BME280;4325;42.520;27.448;2022-09-21T12:34:23;100949.06;;;28.63;24.02
8575;BME280;4325;42.520;27.448;2022-09-21T12:36:59;100948.91;;;28.52;24.04
8575;BME280;4325;42.520;27.448;2022-09-21T12:39:45;100947.59;;;28.39;24.49
8575;BME280;4325;42.520;27.448;2022-09-21T12:42:25;100953.78;;;28.15;24.63
8575;BME280;4325;42.520;27.448;2022-09-21T12:44:56;100949.47;;;27.62;24.40
8575;BME280;4325;42.520;27.448;2022-09-21T12:47:35;100939.88;;;27.14;25.68
8575;BME280;4325;42.520;27.448;2022-09-21T12:50:15;100945.78;;;26.79;26.17
8575;BME280;4325;42.520;27.448;2022-09-21T12:52:45;100950.97;;;26.58;27.00
8575;BME280;4325;42.520;27.448;2022-09-21T12:55:22;100957.41;;;26.36;27.35
8575;BME280;4325;42.520;27.448;2022-09-21T12:58:02;100954.00;;;26.07;27.46
8575;BME280;4325;42.520;27.448;2022-09-21T13:00:38;100950.22;;;25.77;28.56
8575;BME280;4325;42.520;27.448;2022-09-21T13:03:12;100952.03;;;25.35;29.10
8575;BME280;4325;42.520;27.448;2022-09-21T13:05:54;100951.56;;;24.98;29.85
8575;BME280;4325;42.520;27.448;2022-09-21T13:08:28;100946.84;;;24.71;29.94
8575;BME280;4325;42.520;27.448;2022-09-21T13:11:00;100953.44;;;24.47;30.71
8575;BME280;4325;42.520;27.448;2022-09-21T13:13:31;100951.88;;;24.18;30.53
8575;BME280;4325;42.520;27.448;2022-09-21T13:16:01;100958.56;;;24.02;30.33
8575;BME280;4325;42.520;27.448;2022-09-21T13:18:32;100957.28;;;23.72;31.04
8575;BME280;4325;42.520;27.448;2022-09-21T13:21:00;100963.28;;;22.97;32.05
8575;BME280;4325;42.520;27.448;2022-09-21T13:23:34;100968.63;;;22.21;33.75
8575;BME280;4325;42.520;27.448;2022-09-21T13:26:08;100965.44;;;21.78;34.55
8575;BME280;4325;42.520;27.448;2022-09-21T13:28:41;100960.66;;;21.58;35.90
8575;BME280;4325;42.520;27.448;2022-09-21T13:31:37;100955.03;;;21.46;35.65